createdAt,value
2022-12-27T00:00:55.158Z,102307.08
2022-12-27T00:01:55.997Z,102307.59
2022-12-27T00:02:56.494Z,102307.75
2022-12-27T00:03:56.677Z,102308.18
2022-12-27T00:04:56.725Z,102308.28
2022-12-27T00:05:57.155Z,102309.20
2022-12-27T00:06:58.122Z,102310.05
2022-12-27T00:07:59.068Z,102310.38
2022-12-27T00:08:59.365Z,102311.45
2022-12-27T00:10:00.284Z,102312.20
2022-12-27T00:11:01.707Z,102313.10
2022-12-27T00:12:01.399Z,102314.12
2022-12-27T00:12:10.106Z,102330.85
2022-12-27T00:13:10.943Z,102330.85
2022-12-27T00:14:11.915Z,102330.79
2022-12-27T00:15:12.877Z,102330.63
2022-12-27T00:16:13.126Z,102330.85
2022-12-27T00:17:13.104Z,102330.52
2022-12-27T00:18:14.083Z,102330.61
2022-12-27T00:19:15.956Z,102330.37
2022-12-27T00:20:15.934Z,102330.12
2022-12-27T00:21:16.336Z,102329.78
2022-12-27T00:22:16.341Z,102329.45
2022-12-27T00:23:16.508Z,102328.52
2022-12-27T00:24:17.433Z,102328.11
2022-12-27T00:25:18.260Z,102328.04
2022-12-27T00:26:19.233Z,102328.44
2022-12-27T00:27:20.172Z,102328.27
2022-12-27T00:28:21.026Z,102328.27
2022-12-27T00:29:21.204Z,102328.27
2022-12-27T00:30:21.599Z,102328.27
2022-12-27T00:31:21.675Z,102328.70
2022-12-27T00:32:22.492Z,102329.13
2022-12-27T00:33:22.651Z,102329.38
2022-12-27T00:34:23.506Z,102329.78
2022-12-27T00:35:24.113Z,102329.62
2022-12-27T00:36:24.067Z,102329.70
2022-12-27T00:37:25.082Z,102330.05
2022-12-27T00:38:25.721Z,102330.12
2022-12-27T00:39:25.987Z,102330.12
2022-12-27T00:40:26.185Z,102329.52
2022-12-27T00:41:27.170Z,102329.11
2022-12-27T00:41:35.839Z,102336.66
2022-12-27T00:42:35.877Z,102336.06
2022-12-27T00:43:35.967Z,102335.73
2022-12-27T00:44:36.895Z,102335.66
2022-12-27T00:45:37.997Z,102335.83
2022-12-27T00:46:38.763Z,102335.39
2022-12-27T00:47:39.676Z,102335.66
2022-12-27T00:48:39.855Z,102335.06
2022-12-27T00:49:39.942Z,102334.57
2022-12-27T00:50:40.789Z,102334.88
2022-12-27T00:51:40.824Z,102335.22
2022-12-27T00:52:41.806Z,102335.72
2022-12-27T00:53:42.438Z,102336.05
2022-12-27T00:54:42.760Z,102336.48
2022-12-27T00:55:43.517Z,102336.72
2022-12-27T00:56:44.345Z,102337.73
2022-12-27T00:57:45.216Z,102338.89
2022-12-27T00:58:46.046Z,102340.17
2022-12-27T00:59:46.578Z,102341.01
2022-12-27T01:00:47.328Z,102342.67
2022-12-27T01:01:47.509Z,102343.58
2022-12-27T01:02:48.118Z,102344.67
2022-12-27T01:03:48.277Z,102345.86
2022-12-27T01:04:49.104Z,102346.53
2022-12-27T01:05:49.151Z,102347.20
2022-12-27T01:06:49.168Z,102348.20
2022-12-27T01:07:51.007Z,102349.27
2022-12-27T01:08:50.049Z,102350.27
2022-12-27T01:09:50.926Z,102350.70
2022-12-27T01:10:51.663Z,102351.02
2022-12-27T01:11:00.345Z,102363.69
2022-12-27T01:12:00.387Z,102363.93
2022-12-27T01:13:00.507Z,102363.67
2022-12-27T01:14:00.565Z,102363.58
2022-12-27T01:15:01.419Z,102363.52
2022-12-27T01:16:02.321Z,102363.56
2022-12-27T01:17:03.287Z,102363.91
2022-12-27T01:18:04.074Z,102364.22
2022-12-27T01:19:04.858Z,102364.16
2022-12-27T01:20:05.799Z,102364.48
2022-12-27T01:21:06.551Z,102364.75
2022-12-27T01:22:06.991Z,102364.48
2022-12-27T01:23:07.897Z,102364.98
2022-12-27T01:24:07.892Z,102365.83
2022-12-27T01:25:08.807Z,102366.23
2022-12-27T01:26:09.664Z,102367.23
2022-12-27T01:27:10.422Z,102367.98
2022-12-27T01:28:11.246Z,102368.64
2022-12-27T01:29:12.102Z,102369.31
2022-12-27T01:30:12.877Z,102369.98
2022-12-27T01:31:13.269Z,102370.74
2022-12-27T01:32:14.075Z,102371.50
2022-12-27T01:33:14.138Z,102372.34
2022-12-27T01:34:15.037Z,102373.27
2022-12-27T01:35:16.010Z,102374.11
2022-12-27T01:36:16.772Z,102374.61
2022-12-27T01:37:18.624Z,102375.67
2022-12-27T01:38:17.666Z,102376.34
2022-12-27T01:39:18.248Z,102377.61
2022-12-27T01:39:27.416Z,102391.11
2022-12-27T01:40:28.168Z,102391.36
2022-12-27T01:41:28.402Z,102392.02
2022-12-27T01:42:29.270Z,102392.59
2022-12-27T01:43:29.849Z,102394.10
2022-12-27T01:44:30.799Z,102394.44
2022-12-27T01:45:31.684Z,102395.38
2022-12-27T01:46:32.528Z,102395.55
2022-12-27T01:47:32.773Z,102396.61
2022-12-27T01:48:33.262Z,102397.28
2022-12-27T01:49:34.223Z,102397.95
2022-12-27T01:50:34.338Z,102398.45
2022-12-27T01:51:34.463Z,102399.12
2022-12-27T01:52:35.435Z,102400.38
2022-12-27T01:53:36.219Z,102400.55
2022-12-27T01:54:36.227Z,102401.31
2022-12-27T01:55:37.137Z,102401.81
2022-12-27T01:56:37.929Z,102402.81
2022-12-27T01:57:38.019Z,102403.31
2022-12-27T01:58:38.040Z,102403.74
2022-12-27T01:59:38.918Z,102404.56
2022-12-27T02:00:39.291Z,102405.06
2022-12-27T02:01:39.992Z,102405.75
2022-12-27T02:02:40.108Z,102406.23
2022-12-27T02:03:40.653Z,102406.93
2022-12-27T02:04:41.397Z,102407.25
2022-12-27T02:05:42.397Z,102407.20
2022-12-27T02:06:42.453Z,102407.19
2022-12-27T02:07:43.230Z,102407.86
2022-12-27T02:08:44.082Z,102408.28
2022-12-27T02:08:57.732Z,102418.99
2022-12-27T02:09:57.827Z,102418.39
2022-12-27T02:10:58.482Z,102417.98
2022-12-27T02:11:58.708Z,102417.39
2022-12-27T02:12:59.677Z,102416.50
2022-12-27T02:14:00.452Z,102416.16
2022-12-27T02:15:01.479Z,102415.65
2022-12-27T02:16:01.782Z,102415.41
2022-12-27T02:17:02.601Z,102414.47
2022-12-27T02:18:03.306Z,102413.89
2022-12-27T02:19:04.280Z,102413.81
2022-12-27T02:20:04.810Z,102412.74
2022-12-27T02:21:05.617Z,102413.14
2022-12-27T02:22:05.621Z,102413.56
2022-12-27T02:23:05.926Z,102413.56
2022-12-27T02:24:05.947Z,102413.83
2022-12-27T02:25:06.899Z,102414.66
2022-12-27T02:26:07.261Z,102415.50
2022-12-27T02:27:07.938Z,102416.33
2022-12-27T02:28:07.963Z,102417.17
2022-12-27T02:29:08.070Z,102417.75
2022-12-27T02:30:09.948Z,102418.41
2022-12-27T02:31:09.642Z,102419.34
2022-12-27T02:32:10.394Z,102419.67
2022-12-27T02:33:10.416Z,102420.27
2022-12-27T02:34:11.217Z,102420.33
2022-12-27T02:35:11.758Z,102420.00
2022-12-27T02:36:12.107Z,102420.17
2022-12-27T02:37:12.906Z,102419.67
2022-12-27T02:37:21.553Z,102417.83
2022-12-27T02:38:22.305Z,102417.43
2022-12-27T02:39:25.509Z,102417.77
2022-12-27T02:40:23.934Z,102419.16
2022-12-27T02:41:23.991Z,102419.60
2022-12-27T02:42:24.012Z,102420.61
2022-12-27T02:43:24.124Z,102421.45
2022-12-27T02:44:24.837Z,102422.28
2022-12-27T02:45:25.758Z,102423.19
2022-12-27T02:46:25.982Z,102424.62
2022-12-27T02:47:26.358Z,102425.85
2022-12-27T02:48:26.023Z,102426.95
2022-12-27T02:49:26.216Z,102428.38
2022-12-27T02:50:27.144Z,102429.70
2022-12-27T02:51:27.464Z,102430.97
2022-12-27T02:52:27.501Z,102431.80
2022-12-27T02:53:28.065Z,102432.73
2022-12-27T02:54:28.998Z,102434.25
2022-12-27T02:55:29.996Z,102434.65
2022-12-27T02:56:30.866Z,102435.67
2022-12-27T02:57:30.994Z,102437.00
2022-12-27T02:58:31.311Z,102437.85
2022-12-27T02:59:32.225Z,102439.69
2022-12-27T03:00:32.440Z,102441.10
2022-12-27T03:01:32.629Z,102442.39
2022-12-27T03:02:33.106Z,102442.88
2022-12-27T03:03:33.072Z,102444.30
2022-12-27T03:04:34.001Z,102445.33
2022-12-27T03:05:34.081Z,102445.75
2022-12-27T03:06:34.838Z,102446.48
2022-12-27T03:06:43.555Z,102459.56
2022-12-27T03:07:44.033Z,102459.73
2022-12-27T03:08:44.077Z,102459.06
2022-12-27T03:09:44.151Z,102458.89
2022-12-27T03:10:44.294Z,102458.72
2022-12-27T03:11:45.240Z,102458.16
2022-12-27T03:12:45.255Z,102458.22
2022-12-27T03:13:45.331Z,102458.81
2022-12-27T03:14:45.433Z,102459.24
2022-12-27T03:15:46.342Z,102459.67
2022-12-27T03:16:47.117Z,102458.67
2022-12-27T03:17:47.398Z,102458.67
2022-12-27T03:18:47.666Z,102458.00
2022-12-27T03:19:48.585Z,102457.33
2022-12-27T03:20:49.344Z,102457.24
2022-12-27T03:21:50.000Z,102457.72
2022-12-27T03:22:50.404Z,102457.56
2022-12-27T03:23:50.725Z,102457.37
2022-12-27T03:24:51.648Z,102458.31
2022-12-27T03:25:52.212Z,102458.46
2022-12-27T03:26:53.119Z,102459.38
2022-12-27T03:27:54.124Z,102460.05
2022-12-27T03:28:55.520Z,102460.91
2022-12-27T03:29:54.658Z,102460.30
2022-12-27T03:30:55.704Z,102460.47
2022-12-27T03:31:56.265Z,102460.21
2022-12-27T03:32:56.652Z,102460.11
2022-12-27T03:33:57.443Z,102460.62
2022-12-27T03:34:57.581Z,102461.79
2022-12-27T03:35:58.187Z,102462.56
2022-12-27T03:36:58.111Z,102463.56
2022-12-27T03:37:58.984Z,102464.48
2022-12-27T03:38:59.294Z,102464.37
2022-12-27T03:39:07.971Z,102474.41
2022-12-27T03:40:08.918Z,102474.01
2022-12-27T03:41:09.547Z,102474.07
2022-12-27T03:42:10.886Z,102474.01
2022-12-27T03:43:10.844Z,102474.84
2022-12-27T03:44:10.974Z,102475.25
2022-12-27T03:45:11.852Z,102475.25
2022-12-27T03:46:12.038Z,102474.92
2022-12-27T03:47:11.998Z,102475.34
2022-12-27T03:48:12.161Z,102474.92
2022-12-27T03:49:13.114Z,102475.59
2022-12-27T03:50:13.750Z,102475.92
2022-12-27T03:51:14.706Z,102475.59
2022-12-27T03:52:15.392Z,102474.99
2022-12-27T03:53:15.517Z,102474.99
2022-12-27T03:54:15.896Z,102474.66
2022-12-27T03:55:16.042Z,102474.99
2022-12-27T03:56:16.411Z,102473.98
2022-12-27T03:57:16.534Z,102474.89
2022-12-27T03:58:17.406Z,102476.16
2022-12-27T03:59:18.063Z,102477.42
2022-12-27T04:00:18.156Z,102478.43
2022-12-27T04:01:19.046Z,102478.84
2022-12-27T04:02:20.053Z,102479.50
2022-12-27T04:03:20.031Z,102480.51
2022-12-27T04:04:20.482Z,102481.44
2022-12-27T04:05:21.013Z,102482.20
2022-12-27T04:06:21.468Z,102483.38
2022-12-27T04:07:21.684Z,102484.20
2022-12-27T04:08:21.863Z,102484.54
2022-12-27T04:09:22.634Z,102485.12
2022-12-27T04:10:23.169Z,102486.45
2022-12-27T04:10:31.771Z,102510.01
2022-12-27T04:11:32.149Z,102509.28
2022-12-27T04:12:32.403Z,102509.19
2022-12-27T04:13:32.927Z,102508.59
2022-12-27T04:14:33.330Z,102508.85
2022-12-27T04:15:33.390Z,102509.00
2022-12-27T04:16:33.691Z,102508.77
2022-12-27T04:17:34.197Z,102508.95
2022-12-27T04:18:34.519Z,102509.11
2022-12-27T04:19:34.942Z,102508.77
2022-12-27T04:20:35.857Z,102508.95
2022-12-27T04:21:36.711Z,102509.05
2022-12-27T04:22:37.302Z,102509.28
2022-12-27T04:23:37.988Z,102509.54
2022-12-27T04:24:38.675Z,102510.47
2022-12-27T04:25:39.299Z,102511.05
2022-12-27T04:26:39.832Z,102511.62
2022-12-27T04:27:40.341Z,102512.56
2022-12-27T04:28:41.953Z,102513.30
2022-12-27T04:29:41.685Z,102512.95
2022-12-27T04:30:42.547Z,102513.22
2022-12-27T04:31:43.245Z,102513.55
2022-12-27T04:32:43.494Z,102513.36
2022-12-27T04:33:44.199Z,102513.20
2022-12-27T04:34:45.074Z,102512.20
2022-12-27T04:35:45.990Z,102511.77
2022-12-27T04:36:46.728Z,102511.27
2022-12-27T04:37:46.811Z,102510.94
2022-12-27T04:38:47.494Z,102510.77
2022-12-27T04:39:48.387Z,102509.77
2022-12-27T04:40:48.498Z,102509.10
2022-12-27T04:41:49.149Z,102507.95
2022-12-27T04:42:00.388Z,102496.21
2022-12-27T04:43:01.328Z,102495.78
2022-12-27T04:44:01.426Z,102495.88
2022-12-27T04:45:01.608Z,102495.20
2022-12-27T04:46:02.580Z,102495.05
2022-12-27T04:47:03.370Z,102495.03
2022-12-27T04:48:04.321Z,102494.45
2022-12-27T04:49:04.641Z,102494.28
2022-12-27T04:50:04.869Z,102493.30
2022-12-27T04:51:05.800Z,102492.78
2022-12-27T04:52:06.682Z,102492.13
2022-12-27T04:53:07.778Z,102491.28
2022-12-27T04:54:08.006Z,102490.70
2022-12-27T04:55:07.939Z,102489.48
2022-12-27T04:56:08.006Z,102488.47
2022-12-27T04:57:08.917Z,102488.31
2022-12-27T04:58:09.822Z,102487.54
2022-12-27T04:59:11.175Z,102486.47
2022-12-27T05:00:11.007Z,102486.06
2022-12-27T05:01:14.277Z,102484.71
2022-12-27T05:02:12.641Z,102483.63
2022-12-27T05:03:13.442Z,102482.11
2022-12-27T05:04:14.166Z,102480.89
2022-12-27T05:05:15.085Z,102479.55
2022-12-27T05:06:15.907Z,102479.23
2022-12-27T05:07:15.967Z,102478.81
2022-12-27T05:08:16.703Z,102478.30
2022-12-27T05:09:21.468Z,102477.55
2022-12-27T05:09:25.562Z,102478.09
2022-12-27T05:10:25.742Z,102477.67
2022-12-27T05:11:26.155Z,102477.00
2022-12-27T05:12:26.323Z,102477.00
2022-12-27T05:13:27.174Z,102477.00
2022-12-27T05:14:27.308Z,102476.00
2022-12-27T05:15:27.366Z,102475.92
2022-12-27T05:16:28.277Z,102475.69
2022-12-27T05:17:29.010Z,102475.75
2022-12-27T05:18:29.935Z,102475.84
2022-12-27T05:19:30.082Z,102474.74
2022-12-27T05:20:30.990Z,102474.84
2022-12-27T05:21:31.070Z,102474.52
2022-12-27T05:22:31.951Z,102474.84
2022-12-27T05:23:31.952Z,102474.91
2022-12-27T05:24:32.731Z,102474.50
2022-12-27T05:25:33.271Z,102474.86
2022-12-27T05:26:34.259Z,102475.02
2022-12-27T05:27:34.123Z,102475.53
2022-12-27T05:28:34.936Z,102475.69
2022-12-27T05:29:35.928Z,102475.86
2022-12-27T05:30:36.097Z,102476.42
2022-12-27T05:31:36.899Z,102476.70
2022-12-27T05:32:37.511Z,102476.69
2022-12-27T05:33:37.664Z,102477.05
2022-12-27T05:34:38.367Z,102476.87
2022-12-27T05:35:39.284Z,102476.46
2022-12-27T05:36:39.973Z,102476.02
2022-12-27T05:37:40.759Z,102476.55
2022-12-27T05:38:41.571Z,102476.30
2022-12-27T05:39:42.290Z,102476.03
2022-12-27T05:40:42.393Z,102475.89
2022-12-27T05:40:51.005Z,102474.17
2022-12-27T05:41:51.550Z,102473.91
2022-12-27T05:42:52.552Z,102473.83
2022-12-27T05:43:52.613Z,102473.39
2022-12-27T05:44:52.964Z,102472.58
2022-12-27T05:45:53.001Z,102471.56
2022-12-27T05:46:53.144Z,102471.06
2022-12-27T05:47:53.817Z,102471.23
2022-12-27T05:48:54.147Z,102469.48
2022-12-27T05:49:54.315Z,102468.57
2022-12-27T05:50:54.592Z,102468.00
2022-12-27T05:51:55.295Z,102467.48
2022-12-27T05:52:56.301Z,102467.13
2022-12-27T05:53:57.008Z,102466.66
2022-12-27T05:54:57.224Z,102466.56
2022-12-27T05:55:57.820Z,102465.99
2022-12-27T05:56:57.811Z,102465.64
2022-12-27T05:57:58.745Z,102465.73
2022-12-27T05:58:59.727Z,102465.93
2022-12-27T06:00:00.208Z,102466.92
2022-12-27T06:01:00.257Z,102467.02
2022-12-27T06:02:00.574Z,102467.74
2022-12-27T06:03:00.708Z,102468.34
2022-12-27T06:04:00.903Z,102469.44
2022-12-27T06:05:00.964Z,102470.52
2022-12-27T06:06:01.005Z,102471.92
2022-12-27T06:07:01.863Z,102472.61
2022-12-27T06:08:02.732Z,102473.69
2022-12-27T06:09:03.458Z,102474.37
2022-12-27T06:10:03.567Z,102475.28
2022-12-27T06:11:06.753Z,102476.80
2022-12-27T06:11:16.166Z,102501.08
2022-12-27T06:12:16.839Z,102500.81
2022-12-27T06:13:17.796Z,102500.72
2022-12-27T06:14:17.863Z,102500.56
2022-12-27T06:15:18.606Z,102500.30
2022-12-27T06:16:18.723Z,102500.30
2022-12-27T06:17:19.284Z,102500.06
2022-12-27T06:18:19.489Z,102499.73
2022-12-27T06:19:19.768Z,102499.88
2022-12-27T06:20:20.583Z,102500.45
2022-12-27T06:21:20.597Z,102500.54
2022-12-27T06:22:21.828Z,102500.80
2022-12-27T06:23:20.978Z,102501.64
2022-12-27T06:24:21.895Z,102502.79
2022-12-27T06:25:22.747Z,102502.78
2022-12-27T06:26:22.903Z,102503.63
2022-12-27T06:27:23.000Z,102504.11
2022-12-27T06:28:23.073Z,102504.70
2022-12-27T06:29:23.864Z,102505.11
2022-12-27T06:30:24.833Z,102505.70
2022-12-27T06:31:24.965Z,102506.35
2022-12-27T06:32:25.789Z,102507.03
2022-12-27T06:33:25.906Z,102507.01
2022-12-27T06:34:26.008Z,102507.52
2022-12-27T06:35:26.292Z,102508.11
2022-12-27T06:36:26.406Z,102508.59
2022-12-27T06:37:27.235Z,102508.77
2022-12-27T06:38:29.226Z,102509.25
2022-12-27T06:39:28.271Z,102510.49
2022-12-27T06:40:28.317Z,102511.17
2022-12-27T06:40:37.455Z,102523.50
2022-12-27T06:41:37.692Z,102523.66
2022-12-27T06:42:38.572Z,102523.61
2022-12-27T06:43:39.154Z,102523.52
2022-12-27T06:44:39.369Z,102523.16
2022-12-27T06:45:39.812Z,102523.66
2022-12-27T06:46:39.873Z,102523.75
2022-12-27T06:47:40.066Z,102524.84
2022-12-27T06:48:40.809Z,102525.23
2022-12-27T06:49:41.716Z,102526.57
2022-12-27T06:50:41.916Z,102527.06
2022-12-27T06:51:42.927Z,102528.38
2022-12-27T06:52:44.790Z,102529.41
2022-12-27T06:53:44.160Z,102530.23
2022-12-27T06:54:44.900Z,102531.63
2022-12-27T06:55:45.140Z,102532.45
2022-12-27T06:56:45.830Z,102533.53
2022-12-27T06:57:45.863Z,102534.94
2022-12-27T06:58:46.761Z,102535.50
2022-12-27T06:59:52.467Z,102536.84
2022-12-27T07:00:47.655Z,102538.09
2022-12-27T07:01:48.510Z,102539.98
2022-12-27T07:02:49.325Z,102541.06
2022-12-27T07:03:49.431Z,102542.87
2022-12-27T07:04:50.202Z,102544.87
2022-12-27T07:05:50.969Z,102547.27
2022-12-27T07:06:51.906Z,102548.95
2022-12-27T07:07:52.006Z,102551.52
2022-12-27T07:08:52.941Z,102554.02
2022-12-27T07:09:53.032Z,102556.59
2022-12-27T07:10:54.021Z,102558.76
2022-12-27T07:11:03.707Z,102601.91
2022-12-27T07:12:04.554Z,102601.64
2022-12-27T07:13:04.662Z,102601.75
2022-12-27T07:14:04.898Z,102601.46
2022-12-27T07:15:05.792Z,102602.30
2022-12-27T07:16:06.021Z,102603.12
2022-12-27T07:17:06.175Z,102604.46
2022-12-27T07:18:06.745Z,102605.31
2022-12-27T07:19:07.557Z,102606.45
2022-12-27T07:20:07.627Z,102607.20
2022-12-27T07:21:08.043Z,102608.53
2022-12-27T07:22:08.953Z,102609.64
2022-12-27T07:23:11.927Z,102610.55
2022-12-27T07:24:09.389Z,102611.72
2022-12-27T07:25:10.317Z,102612.80
2022-12-27T07:26:10.858Z,102614.30
2022-12-27T07:27:11.083Z,102615.47
2022-12-27T07:28:11.792Z,102616.63
2022-12-27T07:29:12.497Z,102617.80
2022-12-27T07:30:12.557Z,102619.05
2022-12-27T07:31:12.586Z,102619.98
2022-12-27T07:32:12.749Z,102621.23
2022-12-27T07:33:13.302Z,102622.20
2022-12-27T07:34:14.040Z,102623.55
2022-12-27T07:35:14.703Z,102625.38
2022-12-27T07:36:15.720Z,102627.89
2022-12-27T07:37:15.726Z,102629.39
2022-12-27T07:38:16.654Z,102631.33
2022-12-27T07:39:17.603Z,102632.99
2022-12-27T07:39:26.236Z,102666.19
2022-12-27T07:40:26.905Z,102665.59
2022-12-27T07:41:26.968Z,102665.85
2022-12-27T07:42:27.293Z,102665.33
2022-12-27T07:43:27.563Z,102665.09
2022-12-27T07:44:27.796Z,102664.23
2022-12-27T07:45:28.088Z,102664.41
2022-12-27T07:46:29.014Z,102663.75
2022-12-27T07:47:29.346Z,102663.55
2022-12-27T07:48:29.671Z,102663.30
2022-12-27T07:49:30.253Z,102663.13
2022-12-27T07:50:30.223Z,102663.37
2022-12-27T07:51:30.782Z,102663.11
2022-12-27T07:52:30.896Z,102664.27
2022-12-27T07:53:31.478Z,102664.51
2022-12-27T07:54:31.879Z,102665.25
2022-12-27T07:55:32.227Z,102665.75
2022-12-27T07:56:32.645Z,102666.91
2022-12-27T07:57:33.297Z,102667.48
2022-12-27T07:58:33.861Z,102667.99
2022-12-27T07:59:34.607Z,102668.47
2022-12-27T08:00:35.122Z,102669.48
2022-12-27T08:01:36.085Z,102670.22
2022-12-27T08:02:36.384Z,102670.89
2022-12-27T08:03:37.077Z,102671.48
2022-12-27T08:04:37.580Z,102671.64
2022-12-27T08:05:38.190Z,102672.40
2022-12-27T08:06:38.848Z,102671.92
2022-12-27T08:07:39.812Z,102671.94
2022-12-27T08:08:39.892Z,102672.22
2022-12-27T08:08:48.604Z,102675.73
2022-12-27T08:09:49.350Z,102675.47
2022-12-27T08:10:50.196Z,102674.83
2022-12-27T08:11:51.078Z,102674.39
2022-12-27T08:12:51.867Z,102674.24
2022-12-27T08:13:52.786Z,102674.09
2022-12-27T08:14:52.808Z,102673.75
2022-12-27T08:15:53.539Z,102673.42
2022-12-27T08:16:54.475Z,102672.77
2022-12-27T08:17:54.983Z,102672.09
2022-12-27T08:18:55.934Z,102670.70
2022-12-27T08:19:56.792Z,102669.43
2022-12-27T08:20:57.445Z,102668.93
2022-12-27T08:21:57.771Z,102668.10
2022-12-27T08:22:58.836Z,102667.09
2022-12-27T08:23:59.487Z,102666.23
2022-12-27T08:25:00.037Z,102665.41
2022-12-27T08:26:00.938Z,102664.73
2022-12-27T08:27:01.959Z,102664.16
2022-12-27T08:28:03.471Z,102663.31
2022-12-27T08:29:03.424Z,102662.56
2022-12-27T08:30:04.249Z,102661.52
2022-12-27T08:31:04.562Z,102659.92
2022-12-27T08:32:06.358Z,102659.12
2022-12-27T08:33:05.450Z,102659.22
2022-12-27T08:34:05.674Z,102658.16
2022-12-27T08:35:41.842Z,102657.76
2022-12-27T08:36:28.528Z,102656.69
2022-12-27T08:37:06.134Z,102655.45
2022-12-27T08:38:07.063Z,102654.72
2022-12-27T08:38:15.795Z,102633.41
2022-12-27T08:39:15.937Z,102633.48
2022-12-27T08:40:16.869Z,102633.66
2022-12-27T08:41:16.947Z,102633.58
2022-12-27T08:42:16.998Z,102632.77
2022-12-27T08:43:17.451Z,102632.69
2022-12-27T08:44:17.466Z,102632.45
2022-12-27T08:45:17.606Z,102632.53
2022-12-27T08:46:18.670Z,102632.45
2022-12-27T08:47:19.394Z,102631.86
2022-12-27T08:48:20.433Z,102631.20
2022-12-27T08:49:20.440Z,102630.31
2022-12-27T08:50:20.783Z,102630.23
2022-12-27T08:51:32.737Z,102629.14
2022-12-27T08:52:21.706Z,102628.65
2022-12-27T08:53:22.112Z,102628.33
2022-12-27T08:54:22.242Z,102628.17
2022-12-27T08:55:23.115Z,102627.84
2022-12-27T08:56:24.011Z,102627.19
2022-12-27T08:57:24.736Z,102626.10
2022-12-27T08:58:25.652Z,102625.88
2022-12-27T08:59:25.754Z,102625.55
2022-12-27T09:00:26.285Z,102625.13
2022-12-27T09:01:27.361Z,102624.55
2022-12-27T09:02:27.783Z,102624.53
2022-12-27T09:03:28.264Z,102624.81
2022-12-27T09:04:28.581Z,102625.64
2022-12-27T09:05:28.658Z,102625.57
2022-12-27T09:06:28.775Z,102626.00
2022-12-27T09:07:29.646Z,102626.40
2022-12-27T09:08:29.828Z,102626.66
2022-12-27T09:08:38.451Z,102650.57
2022-12-27T09:09:38.817Z,102649.80
2022-12-27T09:10:39.790Z,102648.97
2022-12-27T09:11:40.680Z,102647.03
2022-12-27T09:12:40.804Z,102645.63
2022-12-27T09:13:41.496Z,102644.13
2022-12-27T09:14:43.465Z,102643.36
2022-12-27T09:15:43.049Z,102642.36
2022-12-27T09:16:43.957Z,102641.62
2022-12-27T09:17:44.186Z,102639.27
2022-12-27T09:18:44.326Z,102638.16
2022-12-27T09:19:44.731Z,102638.09
2022-12-27T09:20:44.892Z,102638.25
2022-12-27T09:21:45.727Z,102637.67
2022-12-27T09:22:46.017Z,102637.86
2022-12-27T09:23:46.368Z,102637.88
2022-12-27T09:24:46.933Z,102637.95
2022-12-27T09:25:47.538Z,102637.97
2022-12-27T09:26:48.413Z,102638.04
2022-12-27T09:27:48.521Z,102637.88
2022-12-27T09:28:48.741Z,102638.56
2022-12-27T09:29:49.002Z,102638.70
2022-12-27T09:30:50.915Z,102638.55
2022-12-27T09:31:50.755Z,102638.72
2022-12-27T09:32:51.716Z,102638.73
2022-12-27T09:33:52.658Z,102639.08
2022-12-27T09:34:52.770Z,102637.73
2022-12-27T09:35:53.653Z,102637.48
2022-12-27T09:36:02.299Z,102632.55
2022-12-27T09:37:03.088Z,102631.45
2022-12-27T09:38:03.884Z,102631.61
2022-12-27T09:39:04.287Z,102632.28
2022-12-27T09:40:04.960Z,102632.02
2022-12-27T09:41:05.292Z,102632.59
2022-12-27T09:42:47.727Z,102632.03
2022-12-27T09:43:16.629Z,102632.53
2022-12-27T09:44:06.461Z,102632.77
2022-12-27T09:45:07.445Z,102632.88
2022-12-27T09:46:07.482Z,102632.27
2022-12-27T09:47:08.409Z,102632.61
2022-12-27T09:48:08.796Z,102633.28
2022-12-27T09:49:09.719Z,102633.35
2022-12-27T09:50:10.671Z,102633.03
2022-12-27T09:51:11.467Z,102634.11
2022-12-27T09:52:12.294Z,102634.63
2022-12-27T09:53:12.774Z,102634.59
2022-12-27T09:54:13.680Z,102634.95
2022-12-27T09:55:14.662Z,102635.52
2022-12-27T09:56:14.979Z,102634.75
2022-12-27T09:57:20.481Z,102635.10
2022-12-27T09:58:16.690Z,102636.95
2022-12-27T09:59:16.920Z,102637.95
2022-12-27T10:00:17.688Z,102638.95
2022-12-27T10:01:18.730Z,102639.85
2022-12-27T10:02:18.908Z,102640.28
2022-12-27T10:03:18.977Z,102640.11
2022-12-27T10:04:20.015Z,102640.97
2022-12-27T10:04:45.511Z,102639.42
2022-12-27T10:05:28.720Z,102639.75
2022-12-27T10:06:29.005Z,102639.66
2022-12-27T10:07:29.390Z,102639.66
2022-12-27T10:08:30.265Z,102639.33
2022-12-27T10:09:31.224Z,102639.16
2022-12-27T10:10:32.205Z,102638.48
2022-12-27T10:11:33.138Z,102638.16
2022-12-27T10:12:34.002Z,102638.48
2022-12-27T10:13:34.906Z,102638.82
2022-12-27T10:14:35.032Z,102639.25
2022-12-27T10:15:35.635Z,102638.92
2022-12-27T10:16:35.583Z,102639.41
2022-12-27T10:17:36.489Z,102639.77
2022-12-27T10:18:37.348Z,102640.09
2022-12-27T10:19:37.572Z,102639.34
2022-12-27T10:20:38.293Z,102639.27
2022-12-27T10:21:39.296Z,102639.67
2022-12-27T10:22:39.844Z,102640.02
2022-12-27T10:23:40.785Z,102639.44
2022-12-27T10:24:41.465Z,102639.02
2022-12-27T10:25:42.399Z,102638.78
2022-12-27T10:26:43.700Z,102638.12
2022-12-27T10:27:43.284Z,102637.80
2022-12-27T10:28:44.266Z,102638.47
2022-12-27T10:29:45.081Z,102638.50
2022-12-27T10:30:45.883Z,102637.56
2022-12-27T10:31:46.727Z,102636.59
2022-12-27T10:32:46.909Z,102635.93
2022-12-27T10:33:47.043Z,102635.44
2022-12-27T10:33:55.679Z,102626.25
2022-12-27T10:34:56.601Z,102625.66
2022-12-27T10:35:57.500Z,102625.98
2022-12-27T10:36:57.633Z,102625.75
2022-12-27T10:37:57.630Z,102626.07
2022-12-27T10:38:59.536Z,102626.09
2022-12-27T10:39:58.593Z,102625.81
2022-12-27T10:40:58.687Z,102625.84
2022-12-27T10:41:59.629Z,102624.93
2022-12-27T10:43:00.379Z,102624.77
2022-12-27T10:44:00.459Z,102625.01
2022-12-27T10:45:00.621Z,102624.68
2022-12-27T10:46:00.835Z,102623.92
2022-12-27T10:47:01.099Z,102623.93
2022-12-27T10:48:01.108Z,102622.61
2022-12-27T10:49:23.069Z,102622.09
2022-12-27T10:50:02.034Z,102620.85
2022-12-27T10:51:02.788Z,102620.27
2022-12-27T10:52:03.252Z,102619.44
2022-12-27T10:53:03.749Z,102618.34
2022-12-27T10:54:03.898Z,102617.42
2022-12-27T10:55:04.256Z,102616.65
2022-12-27T10:56:04.258Z,102615.73
2022-12-27T10:57:05.209Z,102615.16
2022-12-27T10:58:05.642Z,102613.98
2022-12-27T10:59:06.554Z,102613.14
2022-12-27T11:00:07.004Z,102611.23
2022-12-27T11:01:07.859Z,102611.30
2022-12-27T11:02:08.395Z,102611.22
2022-12-27T11:02:17.275Z,102608.04
2022-12-27T11:03:18.054Z,102607.81
2022-12-27T11:04:20.933Z,102607.70
2022-12-27T11:05:19.944Z,102607.46
2022-12-27T11:06:20.116Z,102607.55
2022-12-27T11:07:20.262Z,102607.15
2022-12-27T11:08:20.656Z,102606.88
2022-12-27T11:09:21.546Z,102606.46
2022-12-27T11:10:22.503Z,102606.15
2022-12-27T11:11:22.799Z,102605.54